createdAt,value
2024-04-15T00:00:01.731Z,16.84
2024-04-15T00:02:29.221Z,16.76
2024-04-15T00:04:56.895Z,16.67
2024-04-15T00:07:24.398Z,16.69
2024-04-15T00:09:51.998Z,16.72
2024-04-15T00:12:19.641Z,16.61
2024-04-15T00:14:47.199Z,16.66
2024-04-15T00:17:15.635Z,16.50
2024-04-15T00:19:43.351Z,16.40
2024-04-15T00:22:10.987Z,16.10
2024-04-15T00:24:38.593Z,16.21
2024-04-15T00:27:06.294Z,16.03
2024-04-15T00:29:33.792Z,15.93
2024-04-15T00:32:01.367Z,15.93
2024-04-15T00:34:28.904Z,15.84
2024-04-15T00:36:56.752Z,15.84
2024-04-15T00:39:24.267Z,15.67
2024-04-15T00:41:51.893Z,15.67
2024-04-15T00:44:19.368Z,15.62
2024-04-15T00:46:47.072Z,15.83
2024-04-15T00:49:15.000Z,15.83
2024-04-15T00:51:43.328Z,15.66
2024-04-15T00:54:11.464Z,15.66
2024-04-15T00:56:39.487Z,15.75
2024-04-15T00:59:08.558Z,15.58
2024-04-15T01:01:36.399Z,15.56
2024-04-15T01:04:04.087Z,15.53
2024-04-15T01:06:31.899Z,15.58
2024-04-15T01:08:59.355Z,15.61
2024-04-15T01:11:27.105Z,15.68
2024-04-15T01:13:54.671Z,15.41
2024-04-15T01:16:22.314Z,15.56
2024-04-15T01:18:49.860Z,15.23
2024-04-15T01:21:17.435Z,15.29
2024-04-15T01:23:47.618Z,15.45
2024-04-15T01:26:15.055Z,15.09
2024-04-15T01:28:43.280Z,15.24
2024-04-15T01:31:10.769Z,15.13
2024-04-15T01:33:38.323Z,15.02
2024-04-15T01:36:05.994Z,15.31
2024-04-15T01:38:33.866Z,15.23
2024-04-15T01:41:01.403Z,14.96
2024-04-15T01:43:28.881Z,14.75
2024-04-15T01:45:56.450Z,14.71
2024-04-15T01:48:24.261Z,14.93
2024-04-15T01:50:51.859Z,14.81
2024-04-15T01:53:19.409Z,14.93
2024-04-15T01:55:46.868Z,14.85
2024-04-15T01:58:14.691Z,14.87
2024-04-15T02:00:42.294Z,14.95
2024-04-15T02:03:09.938Z,14.83
2024-04-15T02:05:37.440Z,14.85
2024-04-15T02:08:05.197Z,14.69
2024-04-15T02:10:32.684Z,14.69
2024-04-15T02:13:00.227Z,14.65
2024-04-15T02:15:27.708Z,14.67
2024-04-15T02:17:55.347Z,14.66
2024-04-15T02:20:22.958Z,14.73
2024-04-15T02:22:50.430Z,14.59
2024-04-15T02:25:18.171Z,14.54
2024-04-15T02:27:45.631Z,14.27
2024-04-15T02:30:13.229Z,14.23
2024-04-15T02:32:40.795Z,14.03
2024-04-15T02:35:08.301Z,14.03
2024-04-15T02:37:35.875Z,14.15
2024-04-15T02:40:03.568Z,14.12
2024-04-15T02:42:31.371Z,14.07
2024-04-15T02:44:58.845Z,14.11
2024-04-15T02:47:26.473Z,14.06
2024-04-15T02:49:53.956Z,13.84
2024-04-15T02:52:21.492Z,13.79
2024-04-15T02:54:49.011Z,13.75
2024-04-15T02:57:16.384Z,13.72
2024-04-15T02:59:43.989Z,13.54
2024-04-15T03:02:11.320Z,13.91
2024-04-15T03:04:38.932Z,13.80
2024-04-15T03:07:06.520Z,13.64
2024-04-15T03:09:34.016Z,13.74
2024-04-15T03:12:01.606Z,13.59
2024-04-15T03:14:28.968Z,13.32
2024-04-15T03:16:56.467Z,13.37
2024-04-15T03:19:24.013Z,13.43
2024-04-15T03:21:51.360Z,13.32
2024-04-15T03:24:18.790Z,13.24
2024-04-15T03:26:46.150Z,12.99
2024-04-15T03:29:14.309Z,13.23
2024-04-15T03:31:41.653Z,13.17
2024-04-15T03:34:09.093Z,13.13
2024-04-15T03:36:36.511Z,12.99
2024-04-15T03:39:04.004Z,12.90
2024-04-15T03:41:31.660Z,12.82
2024-04-15T03:43:58.960Z,12.86
2024-04-15T03:46:26.237Z,12.69
2024-04-15T03:48:55.348Z,12.71
2024-04-15T03:51:22.772Z,12.67
2024-04-15T03:53:50.209Z,12.57
2024-04-15T03:56:17.580Z,12.71
2024-04-15T03:58:45.097Z,12.61
2024-04-15T04:01:12.565Z,12.70
2024-04-15T04:03:41.592Z,14.66
2024-04-15T04:06:11.780Z,16.01
2024-04-15T04:08:41.096Z,16.75
2024-04-15T04:11:09.707Z,17.54
2024-04-15T04:13:37.880Z,17.03
2024-04-15T04:16:06.175Z,17.11
2024-04-15T04:18:34.304Z,17.96
2024-04-15T04:21:01.966Z,17.33
2024-04-15T04:23:29.560Z,17.18
2024-04-15T04:25:56.956Z,16.59
2024-04-15T04:28:24.473Z,17.07
2024-04-15T04:30:51.958Z,16.25
2024-04-15T04:33:19.438Z,16.41
2024-04-15T04:35:47.064Z,16.27
2024-04-15T04:38:14.611Z,16.21
2024-04-15T04:40:42.232Z,16.46
2024-04-15T04:43:10.052Z,17.15
2024-04-15T04:45:37.567Z,17.00
2024-04-15T04:48:05.483Z,17.34
2024-04-15T04:50:32.896Z,17.91
2024-04-15T04:53:00.496Z,18.05
2024-04-15T04:55:28.050Z,17.75
2024-04-15T04:57:55.579Z,17.86
2024-04-15T05:00:23.158Z,17.66
2024-04-15T05:02:50.858Z,17.86
2024-04-15T05:05:18.525Z,17.78
2024-04-15T05:07:46.031Z,17.64
2024-04-15T05:10:14.962Z,17.41
2024-04-15T05:12:49.517Z,17.26
2024-04-15T05:15:23.871Z,17.52
2024-04-15T05:17:51.609Z,16.96
2024-04-15T05:20:19.203Z,16.77
2024-04-15T05:22:46.699Z,17.12
2024-04-15T05:25:14.357Z,16.08
2024-04-15T05:27:41.907Z,15.04
2024-04-15T05:30:10.084Z,14.52
2024-04-15T05:32:37.592Z,14.59
2024-04-15T05:35:05.521Z,14.46
2024-04-15T05:37:32.982Z,14.31
2024-04-15T05:40:00.580Z,14.51
2024-04-15T05:42:28.170Z,14.74
2024-04-15T05:44:56.123Z,14.94
2024-04-15T05:47:23.850Z,14.82
2024-04-15T05:49:51.368Z,14.89
2024-04-15T05:52:18.874Z,15.14
2024-04-15T05:54:46.448Z,15.27
2024-04-15T05:57:14.013Z,15.42
2024-04-15T05:59:41.500Z,15.61
2024-04-15T06:02:09.029Z,15.72
2024-04-15T06:04:36.613Z,16.01
2024-04-15T06:07:04.469Z,16.88
2024-04-15T06:09:33.035Z,17.84
2024-04-15T06:12:00.576Z,18.44
2024-04-15T06:14:28.174Z,18.52
2024-04-15T06:16:55.906Z,18.13
2024-04-15T06:19:23.994Z,18.18
2024-04-15T06:21:52.099Z,18.14
2024-04-15T06:24:19.611Z,18.11
2024-04-15T06:26:48.622Z,18.12
2024-04-15T06:29:16.206Z,18.14
2024-04-15T06:31:43.686Z,18.24
2024-04-15T06:34:11.381Z,18.76
2024-04-15T06:36:38.882Z,18.83
2024-04-15T06:39:06.453Z,18.82
2024-04-15T06:41:33.998Z,19.20
2024-04-15T06:44:01.574Z,19.31
2024-04-15T06:46:29.189Z,19.37
2024-04-15T06:48:56.757Z,19.10
2024-04-15T06:51:24.274Z,19.27
2024-04-15T06:53:51.891Z,19.62
2024-04-15T06:56:19.541Z,19.58
2024-04-15T06:58:47.127Z,19.66
2024-04-15T07:01:14.961Z,20.10
2024-04-15T07:03:42.603Z,20.45
2024-04-15T07:06:10.131Z,20.64
2024-04-15T07:08:37.625Z,20.59
2024-04-15T07:11:05.202Z,20.96
2024-04-15T07:13:33.209Z,21.27
2024-04-15T07:16:00.897Z,21.36
2024-04-15T07:18:28.884Z,21.65
2024-04-15T07:20:56.543Z,21.73
2024-04-15T07:23:24.103Z,22.62
2024-04-15T07:26:01.274Z,22.94
2024-04-15T07:28:29.360Z,23.16
2024-04-15T07:31:07.278Z,23.22
2024-04-15T07:33:34.946Z,23.49
2024-04-15T07:36:02.530Z,23.68
2024-04-15T07:38:30.091Z,23.84
2024-04-15T07:41:00.915Z,24.03
2024-04-15T07:43:28.815Z,23.88
2024-04-15T07:45:56.505Z,23.77
2024-04-15T07:48:24.110Z,23.74
2024-04-15T07:50:51.622Z,23.98
2024-04-15T07:53:19.268Z,23.98
2024-04-15T07:55:46.802Z,24.13
2024-04-15T07:58:14.541Z,23.89
2024-04-15T08:00:42.736Z,24.22
2024-04-15T08:03:10.418Z,24.23
2024-04-15T08:05:37.898Z,24.38
2024-04-15T08:08:06.625Z,24.64
2024-04-15T08:10:34.276Z,24.57
2024-04-15T08:13:01.881Z,24.69
2024-04-15T08:15:29.578Z,24.68
2024-04-15T08:17:57.272Z,24.84
2024-04-15T08:20:24.871Z,24.93
2024-04-15T08:22:52.454Z,25.08
2024-04-15T08:25:20.963Z,25.08
2024-04-15T08:27:48.424Z,25.21
2024-04-15T08:30:15.938Z,25.58
2024-04-15T08:32:43.556Z,25.87
2024-04-15T08:35:11.205Z,25.93
2024-04-15T08:37:38.863Z,25.76
2024-04-15T08:40:07.195Z,26.10
2024-04-15T08:42:51.483Z,26.32
2024-04-15T08:45:21.034Z,26.66
2024-04-15T08:47:54.181Z,26.61
2024-04-15T08:50:23.108Z,26.80
2024-04-15T08:52:52.260Z,26.72
2024-04-15T08:55:23.549Z,26.78
2024-04-15T08:57:52.742Z,27.12
2024-04-15T09:00:22.202Z,26.67
2024-04-15T09:02:53.029Z,27.02
2024-04-15T09:05:20.898Z,27.10
2024-04-15T09:07:50.756Z,27.12
2024-04-15T09:10:18.474Z,27.19
2024-04-15T09:12:46.225Z,27.21
2024-04-15T09:15:15.374Z,27.60
2024-04-15T09:17:43.066Z,27.72
2024-04-15T09:20:11.636Z,27.85
2024-04-15T09:22:39.740Z,27.51
2024-04-15T09:25:07.587Z,27.74
2024-04-15T09:27:35.364Z,27.93
2024-04-15T09:30:04.603Z,28.11
2024-04-15T09:32:32.374Z,28.14
2024-04-15T09:35:02.407Z,28.34
2024-04-15T09:37:30.552Z,28.28
2024-04-15T09:39:58.301Z,28.15
2024-04-15T09:42:26.122Z,28.34
2024-04-15T09:44:56.736Z,28.08
2024-04-15T09:47:25.044Z,28.18
2024-04-15T09:49:52.742Z,28.14
2024-04-15T09:52:31.297Z,28.13
2024-04-15T09:55:34.998Z,28.23
2024-04-15T09:58:05.678Z,28.35
2024-04-15T10:00:38.024Z,28.40
2024-04-15T10:03:09.217Z,28.59
2024-04-15T10:05:40.337Z,28.54
2024-04-15T10:08:09.336Z,28.52
2024-04-15T10:10:38.219Z,28.81
2024-04-15T10:13:06.958Z,28.71
2024-04-15T10:15:34.956Z,28.61
2024-04-15T10:18:07.051Z,28.51
2024-04-15T10:20:41.907Z,28.47
2024-04-15T10:23:12.138Z,28.66
2024-04-15T10:25:39.935Z,28.58
2024-04-15T10:28:08.659Z,28.74
2024-04-15T10:30:38.596Z,28.86
2024-04-15T10:33:08.954Z,28.43
2024-04-15T10:35:38.537Z,28.27
2024-04-15T10:38:10.298Z,28.34
2024-04-15T10:40:42.962Z,28.62
2024-04-15T10:43:13.763Z,28.81
2024-04-15T10:45:41.668Z,29.00
2024-04-15T10:48:10.959Z,29.05
2024-04-15T10:50:38.725Z,28.91
2024-04-15T10:53:06.417Z,29.04
2024-04-15T10:55:33.989Z,28.85
2024-04-15T10:58:01.569Z,28.93
2024-04-15T11:00:29.282Z,29.11
2024-04-15T11:02:56.994Z,29.16
2024-04-15T11:05:24.728Z,29.16
2024-04-15T11:07:52.486Z,28.88
2024-04-15T11:10:20.162Z,28.70
2024-04-15T11:12:53.050Z,29.00
2024-04-15T11:15:21.093Z,28.74
2024-04-15T11:17:49.605Z,28.71
2024-04-15T11:20:17.573Z,29.06
2024-04-15T11:22:46.328Z,28.96
2024-04-15T11:25:15.217Z,28.94
2024-04-15T11:27:53.198Z,29.18
2024-04-15T11:30:23.602Z,28.91
2024-04-15T11:32:52.035Z,29.01
2024-04-15T11:35:22.820Z,28.95
2024-04-15T11:37:54.560Z,28.68
2024-04-15T11:40:23.653Z,28.84
2024-04-15T11:42:52.615Z,28.37
2024-04-15T11:45:20.123Z,28.80
2024-04-15T11:47:54.628Z,29.05
2024-04-15T11:50:22.724Z,29.23
2024-04-15T11:52:50.420Z,29.15
2024-04-15T11:55:24.585Z,29.32
2024-04-15T11:57:52.296Z,29.38
2024-04-15T12:00:20.219Z,29.41
2024-04-15T12:02:48.499Z,29.46
2024-04-15T12:05:16.205Z,29.13
2024-04-15T12:07:44.651Z,29.15
2024-04-15T12:10:13.322Z,28.80
2024-04-15T12:12:41.068Z,29.11
2024-04-15T12:15:09.524Z,29.47
2024-04-15T12:17:38.552Z,29.47
2024-04-15T12:20:06.904Z,29.37
2024-04-15T12:22:34.816Z,29.27
2024-04-15T12:25:08.061Z,29.55
2024-04-15T12:27:39.580Z,29.64
2024-04-15T12:30:08.632Z,29.81
2024-04-15T12:32:36.315Z,30.03
2024-04-15T12:35:04.032Z,30.01
2024-04-15T12:37:31.693Z,30.18
2024-04-15T12:39:59.463Z,30.16
2024-04-15T12:42:26.896Z,30.23
2024-04-15T12:44:54.443Z,30.14
2024-04-15T12:47:21.993Z,30.15
2024-04-15T12:49:49.664Z,30.02
2024-04-15T12:52:17.170Z,29.97
2024-04-15T12:54:44.600Z,29.87
2024-04-15T12:57:13.735Z,29.95
2024-04-15T12:59:41.455Z,30.01
2024-04-15T13:02:09.946Z,30.08
2024-04-15T13:04:37.800Z,29.74
2024-04-15T13:07:05.671Z,29.65
2024-04-15T13:09:33.684Z,29.71
2024-04-15T13:12:01.271Z,29.69
2024-04-15T13:14:30.813Z,29.90
2024-04-15T13:16:59.194Z,30.12
2024-04-15T13:19:26.879Z,29.92
2024-04-15T13:21:54.463Z,29.72
2024-04-15T13:24:22.144Z,29.69
2024-04-15T13:26:49.685Z,29.79
2024-04-15T13:29:17.196Z,29.78
2024-04-15T13:31:50.852Z,29.76
2024-04-15T13:34:25.020Z,29.90
2024-04-15T13:36:52.893Z,30.00
2024-04-15T13:39:20.410Z,29.81
2024-04-15T13:41:48.133Z,29.65
2024-04-15T13:44:15.676Z,29.59
2024-04-15T13:46:43.387Z,29.64
2024-04-15T13:49:11.083Z,29.60
2024-04-15T13:51:38.625Z,29.54
2024-04-15T13:54:06.134Z,29.60
2024-04-15T13:56:33.864Z,29.73
2024-04-15T13:59:01.663Z,29.75
2024-04-15T14:01:29.276Z,29.84
2024-04-15T14:03:56.965Z,29.85
2024-04-15T14:06:25.318Z,30.02
2024-04-15T14:08:53.605Z,29.98
2024-04-15T14:11:21.910Z,30.00
2024-04-15T14:13:49.899Z,30.09
2024-04-15T14:16:17.596Z,30.10
2024-04-15T14:18:45.331Z,29.97
2024-04-15T14:21:12.848Z,30.03
2024-04-15T14:23:40.475Z,30.00
2024-04-15T14:26:08.840Z,29.93
2024-04-15T14:28:36.452Z,29.78
2024-04-15T14:31:04.349Z,29.78
2024-04-15T14:33:32.015Z,29.83
2024-04-15T14:35:59.585Z,29.80
2024-04-15T14:38:27.152Z,29.86
2024-04-15T14:40:55.263Z,29.66
2024-04-15T14:43:23.316Z,29.69
2024-04-15T14:45:53.890Z,29.55
2024-04-15T14:48:21.952Z,29.61
2024-04-15T14:50:49.538Z,29.78
2024-04-15T14:53:17.024Z,29.76
2024-04-15T14:55:44.570Z,29.91
2024-04-15T14:58:12.214Z,29.89
2024-04-15T15:00:40.034Z,29.73
2024-04-15T15:03:07.711Z,29.64
2024-04-15T15:05:35.399Z,29.50
2024-04-15T15:08:02.947Z,29.33
2024-04-15T15:10:30.963Z,29.30
2024-04-15T15:12:58.559Z,29.14
2024-04-15T15:15:26.028Z,29.09
2024-04-15T15:17:55.318Z,29.00
2024-04-15T15:20:23.214Z,28.93
2024-04-15T15:22:50.702Z,28.95
2024-04-15T15:25:18.280Z,28.83
2024-04-15T15:27:47.177Z,28.74
2024-04-15T15:30:16.005Z,28.71
2024-04-15T15:32:43.534Z,28.58
2024-04-15T15:35:11.010Z,28.48
2024-04-15T15:37:38.563Z,28.47
2024-04-15T15:40:06.888Z,28.52
2024-04-15T15:42:34.309Z,28.37
2024-04-15T15:45:02.099Z,28.37
2024-04-15T15:47:30.276Z,28.31
2024-04-15T15:49:57.865Z,28.22
2024-04-15T15:52:25.460Z,28.13
2024-04-15T15:54:53.211Z,28.08
2024-04-15T15:57:20.907Z,28.08
2024-04-15T15:59:48.341Z,28.06
2024-04-15T16:02:16.378Z,28.09
2024-04-15T16:04:44.105Z,27.94
2024-04-15T16:07:11.807Z,27.82
2024-04-15T16:09:39.568Z,27.71
2024-04-15T16:12:07.458Z,27.62
2024-04-15T16:14:35.063Z,27.52
2024-04-15T16:17:02.616Z,27.44
2024-04-15T16:19:30.163Z,27.43
2024-04-15T16:21:59.004Z,27.36
2024-04-15T16:24:26.790Z,27.29
2024-04-15T16:26:54.356Z,27.25
2024-04-15T16:29:21.922Z,27.19
2024-04-15T16:31:49.564Z,27.15
2024-04-15T16:34:17.048Z,27.10
2024-04-15T16:36:44.738Z,27.04
2024-04-15T16:39:12.283Z,26.98
2024-04-15T16:41:39.939Z,26.86
2024-04-15T16:44:07.598Z,26.78
2024-04-15T16:46:35.176Z,26.68
2024-04-15T16:49:04.212Z,26.58
2024-04-15T16:51:33.280Z,26.49
2024-04-15T16:54:00.980Z,26.41
2024-04-15T16:56:28.625Z,26.27
2024-04-15T16:58:56.146Z,26.20
2024-04-15T17:01:23.829Z,26.11
2024-04-15T17:03:51.629Z,26.05
2024-04-15T17:06:19.264Z,25.96
2024-04-15T17:08:46.919Z,25.89
2024-04-15T17:11:14.470Z,25.79
2024-04-15T17:13:42.032Z,25.71
2024-04-15T17:16:12.512Z,25.71
2024-04-15T17:18:40.661Z,25.68
2024-04-15T17:21:08.176Z,25.62
2024-04-15T17:23:35.660Z,25.53
2024-04-15T17:26:03.321Z,25.43
2024-04-15T17:28:30.860Z,25.29
2024-04-15T17:30:58.716Z,25.12
2024-04-15T17:33:26.294Z,24.94
2024-04-15T17:35:53.818Z,24.93
2024-04-15T17:38:21.302Z,24.99
2024-04-15T17:40:48.748Z,24.75
2024-04-15T17:43:16.279Z,24.78
2024-04-15T17:45:43.837Z,24.72
2024-04-15T17:48:11.367Z,24.64
2024-04-15T17:50:39.057Z,24.47
2024-04-15T17:53:06.557Z,24.33
2024-04-15T17:55:34.196Z,24.32
2024-04-15T17:58:02.082Z,24.20
2024-04-15T18:00:29.648Z,24.16
2024-04-15T18:02:59.630Z,24.12
2024-04-15T18:05:27.654Z,24.07
2024-04-15T18:07:55.253Z,24.01
2024-04-15T18:10:22.823Z,23.88
2024-04-15T18:12:50.840Z,23.93
2024-04-15T18:15:18.654Z,23.82
2024-04-15T18:17:46.432Z,23.81
2024-04-15T18:20:13.920Z,23.64
2024-04-15T18:22:41.469Z,23.70
2024-04-15T18:25:09.184Z,23.60
2024-04-15T18:27:36.716Z,23.69
2024-04-15T18:30:04.580Z,23.41
2024-04-15T18:32:32.312Z,23.24
2024-04-15T18:34:59.862Z,23.39
2024-04-15T18:37:27.415Z,23.39
2024-04-15T18:39:55.029Z,23.30
2024-04-15T18:42:22.706Z,23.25
2024-04-15T18:44:50.068Z,23.17
2024-04-15T18:47:17.703Z,23.15
2024-04-15T18:49:45.204Z,23.15
2024-04-15T18:52:12.835Z,23.10
2024-04-15T18:54:40.433Z,22.99
2024-04-15T18:57:08.326Z,23.07
2024-04-15T18:59:35.844Z,23.00
2024-04-15T19:02:03.568Z,22.91
2024-04-15T19:04:31.135Z,22.67
2024-04-15T19:06:59.483Z,22.75
2024-04-15T19:09:26.962Z,22.60
2024-04-15T19:11:55.614Z,22.63
2024-04-15T19:14:25.690Z,22.68
2024-04-15T19:16:55.547Z,22.37
2024-04-15T19:19:23.107Z,22.15
2024-04-15T19:21:50.701Z,22.34
2024-04-15T19:24:18.259Z,22.16
2024-04-15T19:26:45.807Z,22.23
2024-04-15T19:29:13.579Z,22.27
2024-04-15T19:31:41.272Z,22.10
2024-04-15T19:34:08.802Z,22.53
2024-04-15T19:36:36.259Z,22.24
2024-04-15T19:39:03.858Z,21.94
2024-04-15T19:41:31.435Z,21.97
2024-04-15T19:43:59.050Z,22.26
2024-04-15T19:46:26.794Z,22.01
2024-04-15T19:48:54.281Z,22.13
2024-04-15T19:51:21.713Z,22.07
2024-04-15T19:53:49.289Z,22.22
2024-04-15T19:56:16.811Z,22.12
2024-04-15T19:58:44.289Z,22.04
2024-04-15T20:01:11.847Z,21.96
2024-04-15T20:03:39.437Z,22.02
2024-04-15T20:06:08.266Z,21.93
2024-04-15T20:08:35.956Z,21.97
2024-04-15T20:11:03.536Z,21.94
2024-04-15T20:13:31.229Z,21.97
2024-04-15T20:15:58.885Z,21.87
2024-04-15T20:18:26.554Z,22.26
2024-04-15T20:20:54.128Z,22.32
2024-04-15T20:23:21.637Z,22.58
2024-04-15T20:25:49.107Z,22.32
2024-04-15T20:28:16.722Z,22.42
2024-04-15T20:30:44.336Z,22.50
2024-04-15T20:33:11.927Z,22.65
2024-04-15T20:35:39.606Z,22.76
2024-04-15T20:38:07.121Z,22.54
2024-04-15T20:40:39.683Z,22.45
2024-04-15T20:43:09.133Z,21.97
2024-04-15T20:45:37.025Z,21.62
2024-04-15T20:48:05.101Z,21.46
2024-04-15T20:50:32.709Z,21.39
2024-04-15T20:53:00.388Z,21.21
2024-04-15T20:55:28.138Z,21.38
2024-04-15T20:57:55.853Z,21.18
2024-04-15T21:00:23.862Z,21.18
2024-04-15T21:02:51.472Z,21.24
2024-04-15T21:05:19.438Z,21.15
2024-04-15T21:07:46.986Z,21.07
2024-04-15T21:10:15.022Z,21.07
2024-04-15T21:12:42.776Z,20.84
2024-04-15T21:15:10.435Z,20.95
2024-04-15T21:17:38.180Z,20.95
2024-04-15T21:20:06.306Z,20.86
2024-04-15T21:22:34.744Z,20.83
2024-04-15T21:25:04.455Z,20.97
2024-04-15T21:27:31.990Z,21.12
2024-04-15T21:29:59.599Z,21.39
2024-04-15T21:32:27.149Z,21.51
2024-04-15T21:34:54.730Z,21.65
2024-04-15T21:37:23.328Z,21.83
2024-04-15T21:39:50.827Z,21.92
2024-04-15T21:42:18.331Z,22.14
2024-04-15T21:44:45.865Z,22.09
2024-04-15T21:47:13.342Z,22.00
2024-04-15T21:49:40.920Z,22.05
2024-04-15T21:52:08.747Z,21.94
2024-04-15T21:54:36.344Z,21.87
2024-04-15T21:57:03.938Z,21.90
2024-04-15T21:59:31.489Z,21.79
2024-04-15T22:01:59.028Z,21.83
2024-04-15T22:04:26.551Z,21.93
2024-04-15T22:06:54.129Z,21.99
2024-04-15T22:09:21.703Z,22.00
2024-04-15T22:11:49.404Z,22.01
2024-04-15T22:14:16.991Z,21.98
2024-04-15T22:16:44.642Z,22.02
2024-04-15T22:19:12.253Z,22.09
2024-04-15T22:21:39.857Z,22.11
2024-04-15T22:24:07.635Z,21.98
2024-04-15T22:26:35.220Z,21.97
2024-04-15T22:29:02.876Z,21.94
2024-04-15T22:31:30.412Z,21.92
2024-04-15T22:33:58.261Z,21.98
2024-04-15T22:36:25.824Z,21.87
2024-04-15T22:38:53.283Z,21.92
2024-04-15T22:41:20.735Z,22.00
2024-04-15T22:43:48.238Z,21.99
2024-04-15T22:46:15.857Z,21.90
2024-04-15T22:48:43.407Z,21.87
2024-04-15T22:51:10.921Z,21.79
2024-04-15T22:53:38.350Z,21.71
2024-04-15T22:56:06.041Z,21.62
2024-04-15T22:58:33.732Z,21.58
2024-04-15T23:01:01.433Z,21.57
2024-04-15T23:03:29.044Z,21.51
2024-04-15T23:05:56.543Z,21.47
2024-04-15T23:08:24.050Z,21.59
2024-04-15T23:10:51.863Z,21.45
2024-04-15T23:13:19.598Z,21.60
2024-04-15T23:15:47.066Z,21.51
2024-04-15T23:18:14.526Z,21.40
2024-04-15T23:20:42.049Z,21.40
2024-04-15T23:23:09.486Z,21.49
2024-04-15T23:25:36.987Z,21.44
2024-04-15T23:28:04.719Z,21.44
2024-04-15T23:30:33.212Z,21.60
2024-04-15T23:33:00.842Z,21.61
2024-04-15T23:35:28.671Z,21.59
2024-04-15T23:37:56.140Z,21.73
2024-04-15T23:40:23.743Z,21.53
2024-04-15T23:42:51.250Z,21.52
2024-04-15T23:45:19.126Z,21.63
2024-04-15T23:47:46.616Z,21.60
2024-04-15T23:50:14.207Z,21.45
2024-04-15T23:52:41.811Z,21.42
2024-04-15T23:55:09.334Z,21.39
2024-04-15T23:57:36.839Z,21.44
